This is the latest recevied weather packets stored in our database for station/object KC7KGF. If no packets are shown the sender has not sent any weather packets the latest 10 day(s).
| Time | Temp. | Humidity | Pressure | Rain* | Wind** | Luminosity | Snow |
|---|---|---|---|---|---|---|---|
| 1777460742 | -1.67° C | 60% | 1021 hPa | 0 mm | - | - | - |
| 1777458941 | -1.11° C | 60% | 1021.2 hPa | 0 mm | - | - | - |
| 1777457146 | -1.11° C | 59% | 1021 hPa | 0 mm | - | - | - |
| 1777455341 | -0.56° C | 58% | 1020.8 hPa | 0 mm | - | - | - |
| 1777453530 | -0.56° C | 56% | 1020.5 hPa | 0 mm | - | - | - |
| 1777451742 | 0° C | 56% | 1020.9 hPa | 0 mm | - | - | - |
| 1777449945 | 0.56° C | 55% | 1021.1 hPa | 0 mm | - | - | - |
| 1777448140 | 1.11° C | 52% | 1021.5 hPa | 0 mm | - | - | - |
| 1777446345 | 2.22° C | 49% | 1021.4 hPa | 0 mm | - | - | - |
| 1777444541 | 2.78° C | 47% | 1021.5 hPa | 0 mm | - | - | - |
| 1777442746 | 4.44° C | 44% | 1021.5 hPa | 0 mm | - | - | - |
| 1777440938 | 6.11° C | 39% | 1021.5 hPa | 0 mm | - | - | - |
| 1777439140 | 7.22° C | 37% | 1021.2 hPa | 0 mm | - | - | - |
| 1777437351 | 7.78° C | 35% | 1021.3 hPa | 0 mm | - | - | - |
| 1777435541 | 9.44° C | 31% | 1021.2 hPa | 0 mm | - | - | - |
| 1777433730 | 11.67° C | 26% | 1021 hPa | 0 mm | - | - | - |
| 1777431932 | 13.89° C | 24% | 1020.5 hPa | 0 mm | - | - | - |
| 1777430145 | 15° C | 21% | 1020.2 hPa | 0 mm | - | - | - |
| 1777428345 | 16.11° C | 19% | 1019.8 hPa | 0 mm | - | - | - |
| 1777426543 | 17.78° C | 16% | 1019.7 hPa | 0 mm | - | - | - |
| 1777424742 | 18.89° C | 15% | 1019.7 hPa | 0 mm | - | - | - |
| 1777422940 | 19.44° C | 12% | 1019.6 hPa | 0 mm | - | - | - |
| 1777421142 | 21.11° C | 12% | 1019.5 hPa | 0 mm | - | - | - |
| 1777419340 | 21.67° C | 14% | 1019.4 hPa | 0 mm | - | - | - |
| 1777417534 | 21.67° C | 14% | 1019.5 hPa | 0 mm | - | - | - |
* Rain latest hour (hover to see other rain measurements)
** Current wind speed in m/s (hover to see current wind gust speed)